Time;durP1;ratioP1;P1;durP2;ratioP2;P2;SDS_P1;SDS_P2;PMS_P1;PMS_P2;Temp;Humidity;BMP_temperature;BMP_pressure;BME280_temperature;BME280_humidity;BME280_pressure;Samples;Min_cycle;Max_cycle;Signal;HPM_P1;HPM_P2
2021/03/10 00:01:16;;;;;;;11.43;6.53;;;;;;;5.10;100.00;101346.75;5086888;27;20028;-72
2021/03/10 00:03:41;;;;;;;9.75;6.28;;;;;;;5.09;100.00;101357.44;5107396;27;20101;-72
2021/03/10 00:06:06;;;;;;;12.70;6.40;;;;;;;5.07;100.00;101360.16;5102194;27;20031;-72
2021/03/10 00:08:32;;;;;;;10.20;6.32;;;;;;;5.05;100.00;101361.13;5104178;27;20032;-72
2021/03/10 00:10:57;;;;;;;12.88;6.50;;;;;;;5.04;100.00;101359.38;5116552;27;20516;-72
2021/03/10 00:13:23;;;;;;;15.38;6.38;;;;;;;5.02;100.00;101353.22;5112262;27;20039;-72
2021/03/10 00:15:49;;;;;;;13.80;6.55;;;;;;;4.98;100.00;101351.59;5102946;27;20047;-72
2021/03/10 00:18:14;;;;;;;13.07;6.25;;;;;;;4.96;100.00;101343.66;5106842;27;20036;-72
2021/03/10 00:20:40;;;;;;;11.75;5.95;;;;;;;4.96;100.00;101337.47;5116095;27;20039;-72
2021/03/10 00:23:05;;;;;;;11.55;6.47;;;;;;;4.96;100.00;101351.63;5097859;27;20043;-72
2021/03/10 00:25:31;;;;;;;10.30;6.05;;;;;;;4.95;100.00;101347.22;5114378;27;20031;-72
2021/03/10 00:27:56;;;;;;;10.40;6.25;;;;;;;4.94;100.00;101344.63;5104084;27;20118;-72
2021/03/10 00:30:22;;;;;;;9.43;6.07;;;;;;;4.92;100.00;101339.34;5107019;27;20070;-72
2021/03/10 00:32:47;;;;;;;10.57;5.85;;;;;;;4.91;100.00;101344.72;5107260;27;20028;-72
2021/03/10 00:35:13;;;;;;;12.68;6.60;;;;;;;4.94;100.00;101341.97;5099125;27;20043;-72
2021/03/10 00:37:38;;;;;;;9.05;6.00;;;;;;;4.88;100.00;101343.00;5109342;27;20115;-72
2021/03/10 00:40:04;;;;;;;12.38;6.28;;;;;;;4.83;100.00;101347.59;5104713;27;20027;-72
2021/03/10 00:42:30;;;;;;;11.77;6.80;;;;;;;4.78;100.00;101339.78;5089830;28;20032;-72
2021/03/10 00:44:55;;;;;;;12.13;6.22;;;;;;;4.75;100.00;101350.50;5098592;27;20465;-72
2021/03/10 00:47:21;;;;;;;9.90;5.97;;;;;;;4.71;100.00;101346.19;5109341;27;20039;-72
2021/03/10 00:49:46;;;;;;;11.55;6.15;;;;;;;4.68;100.00;101346.31;5081983;28;20041;-72
2021/03/10 00:52:12;;;;;;;12.25;6.82;;;;;;;4.63;100.00;101350.03;5105283;27;20428;-72
2021/03/10 00:54:39;;;;;;;10.05;6.05;;;;;;;4.58;100.00;101350.13;5105531;27;20499;-72
2021/03/10 00:57:05;;;;;;;10.73;6.40;;;;;;;4.54;100.00;101359.13;5106669;27;20237;-72
2021/03/10 00:59:31;;;;;;;10.38;6.05;;;;;;;4.48;100.00;101367.28;5102300;27;20122;-72
2021/03/10 01:01:56;;;;;;;8.90;5.57;;;;;;;4.41;100.00;101371.03;5103015;27;20035;-72
2021/03/10 01:04:22;;;;;;;10.35;6.32;;;;;;;4.35;100.00;101379.16;5111645;27;20024;-72
2021/03/10 01:06:47;;;;;;;12.07;6.35;;;;;;;4.30;100.00;101381.97;5107087;27;20035;-73
2021/03/10 01:09:13;;;;;;;10.95;5.72;;;;;;;4.21;100.00;101391.97;5105953;27;20069;-72
2021/03/10 01:11:39;;;;;;;13.18;6.30;;;;;;;4.17;100.00;101392.97;5111171;27;20096;-72
2021/03/10 01:14:04;;;;;;;11.95;6.78;;;;;;;4.11;100.00;101382.50;5115770;27;20107;-72
2021/03/10 01:16:30;;;;;;;11.50;6.18;;;;;;;4.05;100.00;101384.44;5104474;27;20111;-72
2021/03/10 01:18:57;;;;;;;10.05;6.53;;;;;;;4.01;100.00;101381.91;5102000;27;20103;-72
2021/03/10 01:21:23;;;;;;;11.02;6.10;;;;;;;3.95;100.00;101380.25;5088290;27;20585;-72
2021/03/10 01:23:49;;;;;;;11.27;6.10;;;;;;;3.99;100.00;101389.91;5102654;27;20058;-72
2021/03/10 01:26:14;;;;;;;12.43;6.28;;;;;;;3.87;100.00;101398.19;5108421;27;20020;-72
2021/03/10 01:28:40;;;;;;;13.07;7.03;;;;;;;3.85;100.00;101396.47;5102654;27;20126;-72
2021/03/10 01:31:05;;;;;;;10.63;6.95;;;;;;;3.84;100.00;101400.91;5095183;28;20113;-72
2021/03/10 01:33:31;;;;;;;14.85;7.38;;;;;;;3.84;100.00;101400.03;5102154;27;20032;-72
2021/03/10 01:35:56;;;;;;;14.65;7.35;;;;;;;3.88;100.00;101405.25;5105561;28;20080;-72
2021/03/10 01:38:22;;;;;;;13.38;7.28;;;;;;;3.83;100.00;101400.94;5103934;27;20130;-72
2021/03/10 01:40:47;;;;;;;14.02;7.75;;;;;;;3.89;100.00;101396.34;5097108;27;20054;-72
2021/03/10 01:43:13;;;;;;;14.93;8.02;;;;;;;3.85;100.00;101400.00;5098297;27;20119;-72
2021/03/10 01:45:39;;;;;;;15.50;8.00;;;;;;;3.84;100.00;101395.59;5104004;27;20545;-72
2021/03/10 01:48:09;;;;;;;20.05;8.15;;;;;;;3.85;100.00;101402.66;5107787;27;20069;-72
2021/03/10 01:50:36;;;;;;;11.23;7.72;;;;;;;3.85;100.00;101392.03;5108313;27;20089;-72
2021/03/10 01:53:03;;;;;;;11.85;7.85;;;;;;;3.85;100.00;101391.16;5105549;27;20039;-72
2021/03/10 01:55:28;;;;;;;18.35;8.50;;;;;;;3.84;100.00;101384.97;5103055;27;20063;-72
2021/03/10 01:57:54;;;;;;;14.80;8.38;;;;;;;3.84;100.00;101384.97;5095451;28;20081;-72
2021/03/10 02:00:20;;;;;;;17.90;8.98;;;;;;;3.87;100.00;101381.38;5103906;27;20465;-72
2021/03/10 02:02:46;;;;;;;14.63;8.20;;;;;;;3.85;100.00;101376.09;5115527;27;20059;-72
2021/03/10 02:05:17;;;;;;;14.57;8.00;;;;;;;3.85;100.00;101365.47;5110806;27;20566;-72
2021/03/10 02:08:04;;;;;;;16.95;8.57;;;;;;;3.89;100.00;101361.81;5106388;27;20028;-72
2021/03/10 02:10:59;;;;;;;17.25;9.70;;;;;;;3.95;100.00;101368.78;5106117;28;20390;-72
2021/03/10 02:13:38;;;;;;;14.77;9.05;;;;;;;3.98;100.00;101366.91;5096722;27;20032;-72
2021/03/10 02:16:24;;;;;;;17.65;9.82;;;;;;;4.00;100.00;101359.78;5101502;27;20109;-72
2021/03/10 02:19:06;;;;;;;20.75;10.70;;;;;;;4.00;100.00;101349.16;5103416;27;20039;-72
2021/03/10 02:21:37;;;;;;;16.63;10.10;;;;;;;4.00;100.00;101343.84;5100490;27;20024;-72
2021/03/10 02:24:40;;;;;;;16.55;9.48;;;;;;;4.03;100.00;101343.75;5081621;27;20039;-72
2021/03/10 02:27:33;;;;;;;19.52;9.32;;;;;;;4.02;100.00;101352.63;5099861;27;20049;-72
2021/03/10 02:30:25;;;;;;;15.05;9.38;;;;;;;3.99;100.00;101351.84;5094020;28;20407;-72
2021/03/10 02:33:03;;;;;;;14.27;8.90;;;;;;;3.97;100.00;101354.53;5103322;27;20028;-72
2021/03/10 02:35:30;;;;;;;14.15;8.90;;;;;;;3.99;100.00;101354.50;5103407;27;20033;-72
2021/03/10 02:38:00;;;;;;;14.90;8.95;;;;;;;3.95;100.00;101345.72;5093753;28;20389;-72
2021/03/10 02:40:29;;;;;;;21.23;10.25;;;;;;;3.93;100.00;101344.91;5103703;28;20052;-72
2021/03/10 02:42:56;;;;;;;13.70;9.13;;;;;;;3.90;100.00;101342.31;5103335;28;20107;-72
2021/03/10 02:45:23;;;;;;;16.50;9.73;;;;;;;3.93;100.00;101342.25;5102372;28;20466;-72
2021/03/10 02:47:50;;;;;;;22.38;11.35;;;;;;;3.87;100.00;101333.59;5089160;28;20432;-72
2021/03/10 02:50:16;;;;;;;16.52;10.30;;;;;;;3.84;100.00;101339.84;5100932;28;20118;-72
2021/03/10 02:52:42;;;;;;;23.98;12.43;;;;;;;3.85;100.00;101338.94;5106038;28;20123;-72
2021/03/10 02:55:09;;;;;;;15.40;9.43;;;;;;;3.83;100.00;101330.13;5090844;28;20560;-72
2021/03/10 02:57:35;;;;;;;17.92;11.40;;;;;;;3.83;100.00;101319.50;5104241;28;20100;-72
2021/03/10 03:00:09;;;;;;;15.55;9.32;;;;;;;3.79;100.00;101320.50;5109684;28;20541;-72
2021/03/10 03:02:35;;;;;;;16.85;9.68;;;;;;;3.74;100.00;101322.41;5100256;27;20028;-72
2021/03/10 03:05:06;;;;;;;15.13;9.50;;;;;;;3.67;100.00;101319.06;5099368;28;20190;-72
2021/03/10 03:07:33;;;;;;;14.20;9.55;;;;;;;3.64;100.00;101318.28;5095959;27;20032;-72
2021/03/10 03:10:08;;;;;;;18.42;10.40;;;;;;;3.62;100.00;101325.41;5084651;28;20028;-72
2021/03/10 03:12:34;;;;;;;16.70;9.82;;;;;;;3.59;100.00;101325.47;5101785;28;20031;-72
2021/03/10 03:15:01;;;;;;;18.80;10.43;;;;;;;3.56;100.00;101318.47;5099464;28;20370;-72
2021/03/10 03:17:30;;;;;;;20.38;10.80;;;;;;;3.52;100.00;101319.44;5081920;28;20031;-72
2021/03/10 03:19:55;;;;;;;21.15;11.75;;;;;;;3.49;100.00;101316.00;5095681;28;20031;-72
2021/03/10 03:22:23;;;;;;;26.35;11.90;;;;;;;3.46;100.00;101319.59;5091650;28;20481;-72
2021/03/10 03:24:50;;;;;;;19.08;10.93;;;;;;;3.43;100.00;101318.81;5103658;28;20527;-72
2021/03/10 03:27:25;;;;;;;21.15;11.30;;;;;;;3.37;100.00;101319.84;5104643;28;20067;-72
2021/03/10 03:30:00;;;;;;;20.05;10.95;;;;;;;3.35;100.00;101312.81;5106780;27;20536;-72
2021/03/10 03:32:31;;;;;;;21.13;10.50;;;;;;;3.32;100.00;101324.41;5101771;27;20109;-72
2021/03/10 03:34:58;;;;;;;19.52;11.15;;;;;;;3.32;100.00;101331.47;5108470;27;20023;-72
2021/03/10 03:37:24;;;;;;;21.02;11.48;;;;;;;3.28;100.00;101325.38;5120104;27;20474;-72
2021/03/10 03:39:50;;;;;;;20.90;11.63;;;;;;;3.25;100.00;101326.34;5105504;28;20039;-72
2021/03/10 03:42:17;;;;;;;22.30;11.75;;;;;;;3.23;100.00;101328.13;5110339;27;20042;-72
2021/03/10 03:44:43;;;;;;;21.80;12.95;;;;;;;3.29;100.00;101326.25;5112310;27;20083;-72
2021/03/10 03:47:09;;;;;;;27.13;13.90;;;;;;;3.28;100.00;101319.19;5107075;27;20559;-72
2021/03/10 03:49:35;;;;;;;22.00;12.50;;;;;;;3.21;100.00;101327.28;5094671;28;20028;-72
2021/03/10 03:52:01;;;;;;;34.60;15.13;;;;;;;3.20;100.00;101314.97;5104786;27;20044;-72
2021/03/10 03:54:27;;;;;;;24.58;14.95;;;;;;;3.19;100.00;101321.19;5102549;28;20024;-72
2021/03/10 03:56:52;;;;;;;30.23;14.38;;;;;;;3.18;100.00;101321.22;5102836;27;20397;-74
2021/03/10 03:59:18;;;;;;;25.67;14.20;;;;;;;3.16;100.00;101320.38;5098369;28;20063;-72
2021/03/10 04:01:43;;;;;;;29.73;15.40;;;;;;;3.15;100.00;101319.50;5106442;27;20125;-73
2021/03/10 04:04:09;;;;;;;34.63;16.08;;;;;;;3.17;100.00;101328.28;5100647;27;20036;-73
2021/03/10 04:06:35;;;;;;;28.02;15.70;;;;;;;3.17;100.00;101322.09;5105816;28;20131;-73
2021/03/10 04:09:00;;;;;;;29.48;16.30;;;;;;;3.17;100.00;101325.63;5107046;28;20106;-73
2021/03/10 04:11:26;;;;;;;33.15;17.38;;;;;;;3.19;100.00;101321.19;5105828;27;20046;-72
2021/03/10 04:13:52;;;;;;;33.30;16.55;;;;;;;3.21;100.00;101319.34;5114427;27;20032;-73
2021/03/10 04:16:17;;;;;;;39.15;20.92;;;;;;;3.24;100.00;101307.78;5092726;27;20244;-74
2021/03/10 04:18:43;;;;;;;43.50;23.55;;;;;;;3.27;100.00;101304.19;5106875;27;20023;-73
2021/03/10 04:21:08;;;;;;;43.33;23.83;;;;;;;3.28;100.00;101304.13;5110599;27;20438;-73
2021/03/10 04:23:34;;;;;;;44.65;21.60;;;;;;;3.31;100.00;101300.56;5106815;27;20062;-74
2021/03/10 04:25:59;;;;;;;33.53;19.02;;;;;;;3.33;100.00;101307.56;5110546;27;20073;-74
2021/03/10 04:28:25;;;;;;;35.97;18.13;;;;;;;3.34;100.00;101304.00;5090634;27;20031;-73
2021/03/10 04:30:52;;;;;;;37.13;19.02;;;;;;;3.35;100.00;101312.81;5092581;27;20027;-73
2021/03/10 04:33:18;;;;;;;43.20;19.02;;;;;;;3.43;100.00;101308.19;5109605;27;20040;-73
2021/03/10 04:35:43;;;;;;;35.55;18.90;;;;;;;3.39;100.00;101306.53;5107425;27;20063;-73
2021/03/10 04:38:08;;;;;;;38.88;20.83;;;;;;;3.41;100.00;101310.00;5097373;28;20051;-73
2021/03/10 04:40:34;;;;;;;39.25;19.42;;;;;;;3.41;100.00;101310.88;5114020;27;20038;-73
2021/03/10 04:42:59;;;;;;;42.40;20.92;;;;;;;3.41;100.00;101304.69;5105079;27;20035;-73
2021/03/10 04:45:25;;;;;;;37.70;20.65;;;;;;;3.43;100.00;101306.41;5111486;27;20126;-73
2021/03/10 04:47:51;;;;;;;41.72;21.60;;;;;;;3.48;100.00;101311.59;5111110;27;20067;-73
2021/03/10 04:50:17;;;;;;;38.53;21.17;;;;;;;3.50;100.00;101315.09;5111663;27;20032;-72
2021/03/10 04:52:43;;;;;;;42.33;21.30;;;;;;;3.56;100.00;101313.16;5119359;27;20150;-73
2021/03/10 04:55:10;;;;;;;41.55;21.42;;;;;;;3.61;100.00;101311.25;5107377;27;20525;-73
2021/03/10 04:57:37;;;;;;;39.40;21.27;;;;;;;3.64;100.00;101302.34;5100465;27;20036;-72
2021/03/10 05:00:05;;;;;;;53.22;25.38;;;;;;;3.73;100.00;101302.09;5109836;27;20027;-73
2021/03/10 05:02:30;;;;;;;50.15;27.67;;;;;;;3.81;100.00;101304.53;5101888;27;20020;-73
2021/03/10 05:04:56;;;;;;;48.95;25.70;;;;;;;3.81;100.00;101309.84;5108460;27;20589;-72
2021/03/10 05:07:21;;;;;;;44.75;24.20;;;;;;;3.84;100.00;101302.66;5096755;28;20044;-72
2021/03/10 05:09:48;;;;;;;50.78;24.27;;;;;;;3.92;100.00;101295.38;5100893;28;20110;-72
2021/03/10 05:12:13;;;;;;;49.58;22.50;;;;;;;3.90;100.00;101297.19;5106350;27;20102;-72
2021/03/10 05:14:38;;;;;;;50.28;24.05;;;;;;;3.89;100.00;101298.09;5079479;28;20172;-72
2021/03/10 05:17:04;;;;;;;49.10;23.50;;;;;;;3.89;100.00;101306.06;5102148;27;20031;-72
2021/03/10 05:19:29;;;;;;;45.70;23.40;;;;;;;3.89;100.00;101311.38;5098437;27;20507;-74
2021/03/10 05:21:55;;;;;;;53.50;24.55;;;;;;;3.87;100.00;101318.53;5116707;27;20392;-73
2021/03/10 05:24:20;;;;;;;47.78;24.50;;;;;;;3.86;100.00;101330.06;5107407;27;20038;-74
2021/03/10 05:26:46;;;;;;;46.33;23.08;;;;;;;3.86;100.00;101327.41;5112750;27;20119;-73
2021/03/10 05:29:11;;;;;;;55.33;25.23;;;;;;;3.89;100.00;101331.78;5109397;27;20107;-73
2021/03/10 05:31:37;;;;;;;48.95;25.75;;;;;;;3.92;100.00;101329.00;5098362;27;20047;-73
2021/03/10 05:34:02;;;;;;;46.35;24.90;;;;;;;3.90;100.00;101331.69;5101718;27;20101;-73
2021/03/10 05:36:28;;;;;;;48.88;23.88;;;;;;;4.19;100.00;101322.06;5101147;27;20470;-73
2021/03/10 05:38:53;;;;;;;46.38;24.30;;;;;;;4.18;100.00;101320.31;5114596;27;20042;-73
2021/03/10 05:41:19;;;;;;;48.20;25.05;;;;;;;4.14;100.00;101316.00;5111800;27;20079;-73
2021/03/10 05:43:44;;;;;;;56.28;26.52;;;;;;;4.12;100.00;101321.38;5115871;27;20142;-73
2021/03/10 05:46:11;;;;;;;52.08;25.52;;;;;;;4.17;100.00;101314.13;5109684;27;20024;-74
2021/03/10 05:48:36;;;;;;;51.78;25.48;;;;;;;4.22;100.00;101306.03;5111678;27;20039;-74
2021/03/10 05:51:03;;;;;;;54.70;27.10;;;;;;;4.29;100.00;101303.16;5101674;27;20039;-72
2021/03/10 05:53:35;;;;;;;58.58;27.33;;;;;;;4.30;100.00;101310.22;5094718;28;20604;-74
2021/03/10 05:56:02;;;;;;;48.25;25.33;;;;;;;4.31;100.00;101306.66;5108163;27;20470;-72
2021/03/10 05:58:28;;;;;;;60.30;28.77;;;;;;;4.23;100.00;101305.13;5116820;27;20331;-72
2021/03/10 06:00:53;;;;;;;63.83;28.73;;;;;;;4.27;100.00;101309.41;5089523;28;20031;-73
2021/03/10 06:03:19;;;;;;;49.10;26.77;;;;;;;4.37;100.00;101300.28;5100287;27;20453;-72
2021/03/10 06:05:44;;;;;;;62.80;28.27;;;;;;;4.34;100.00;101310.97;5105554;27;20032;-72
2021/03/10 06:08:14;;;;;;;55.55;28.33;;;;;;;4.30;100.00;101301.38;5095679;27;20041;-72
2021/03/10 06:10:48;;;;;;;53.05;27.17;;;;;;;4.35;100.00;101302.97;5099861;27;20494;-72
2021/03/10 06:13:30;;;;;;;59.05;27.85;;;;;;;4.28;100.00;101300.53;5093552;27;20028;-72
2021/03/10 06:16:01;;;;;;;61.50;28.55;;;;;;;4.39;100.00;101304.63;5090278;28;20046;-72
2021/03/10 06:18:34;;;;;;;63.53;28.25;;;;;;;4.44;100.00;101299.19;5090444;28;20074;-72
2021/03/10 06:21:10;;;;;;;63.35;28.48;;;;;;;4.33;100.00;101304.78;5091815;28;20031;-72
2021/03/10 06:23:37;;;;;;;68.10;30.70;;;;;;;4.41;100.00;101296.59;5073768;27;20116;-72
2021/03/10 06:26:04;;;;;;;62.10;28.42;;;;;;;4.52;100.00;101305.13;5096730;27;20118;-72
2021/03/10 06:28:39;;;;;;;65.30;28.27;;;;;;;4.51;100.00;101298.06;5091139;28;20127;-72
2021/03/10 06:31:18;;;;;;;61.63;29.27;;;;;;;4.46;100.00;101292.88;5110269;27;20412;-72
2021/03/10 06:33:44;;;;;;;55.63;26.65;;;;;;;4.51;100.00;101290.09;5104269;27;20039;-72
2021/03/10 06:36:09;;;;;;;64.75;30.05;;;;;;;4.48;100.00;101292.84;5113234;27;20037;-72
2021/03/10 06:38:35;;;;;;;66.15;29.90;;;;;;;4.56;100.00;101301.47;5083624;28;20040;-72
2021/03/10 06:41:00;;;;;;;68.85;30.20;;;;;;;4.53;100.00;101288.25;5090350;28;20027;-72
2021/03/10 06:43:37;;;;;;;60.08;29.60;;;;;;;4.56;100.00;101290.84;5111465;28;20051;-72
2021/03/10 06:46:19;;;;;;;67.63;29.77;;;;;;;4.50;100.00;101290.16;5109997;27;20081;-72
2021/03/10 06:48:59;;;;;;;68.53;30.20;;;;;;;4.53;100.00;101292.69;5106000;28;20053;-72
2021/03/10 06:51:26;;;;;;;141.45;53.90;;;;;;;4.51;100.00;101298.06;5104215;28;20709;-72
2021/03/10 06:53:52;;;;;;;74.95;33.10;;;;;;;4.51;100.00;101300.72;5087535;28;20081;-72
2021/03/10 06:56:35;;;;;;;65.95;30.23;;;;;;;4.68;100.00;101301.09;5090950;28;20274;-72
2021/03/10 06:59:06;;;;;;;79.35;30.83;;;;;;;4.72;100.00;101305.41;5098492;28;20507;-72
2021/03/10 07:01:38;;;;;;;74.28;31.75;;;;;;;4.73;100.00;101314.25;5106042;27;20032;-72
2021/03/10 07:04:04;;;;;;;70.90;31.23;;;;;;;4.67;100.00;101315.31;5102234;27;20071;-72
2021/03/10 07:06:30;;;;;;;81.55;32.22;;;;;;;4.71;100.00;101322.25;5118284;27;20027;-73
2021/03/10 07:08:57;;;;;;;71.00;32.38;;;;;;;4.78;100.00;101317.63;5106324;28;20032;-73
2021/03/10 07:11:24;;;;;;;74.75;33.83;;;;;;;4.80;100.00;101322.00;5088638;28;20541;-72
2021/03/10 07:13:49;;;;;;;68.97;32.28;;;;;;;4.79;100.00;101325.56;5103350;28;20032;-73
2021/03/10 07:16:15;;;;;;;80.10;31.92;;;;;;;4.88;100.00;101317.28;5086201;28;20042;-72
2021/03/10 07:18:41;;;;;;;69.45;30.88;;;;;;;4.78;100.00;101325.59;5105323;27;20043;-72
2021/03/10 07:21:13;;;;;;;71.25;33.85;;;;;;;4.85;100.00;101322.72;5100955;28;20078;-73
2021/03/10 07:23:45;;;;;;;74.20;32.83;;;;;;;5.01;100.00;101330.19;5102276;28;20032;-72
2021/03/10 07:26:13;;;;;;;79.22;32.80;;;;;;;5.00;100.00;101317.84;5117904;27;20117;-73
2021/03/10 07:28:46;;;;;;;75.55;33.53;;;;;;;5.05;100.00;101321.22;5108839;27;20032;-72
2021/03/10 07:31:19;;;;;;;77.38;32.90;;;;;;;5.03;100.00;101323.91;5111355;27;20031;-72
2021/03/10 07:33:53;;;;;;;78.32;33.13;;;;;;;4.97;100.00;101328.56;5104013;27;20528;-72
2021/03/10 07:36:31;;;;;;;81.57;34.25;;;;;;;4.99;100.00;101335.59;5115801;27;20020;-72
2021/03/10 07:38:57;;;;;;;80.18;35.05;;;;;;;5.18;100.00;101327.91;5107348;27;20028;-72
2021/03/10 07:41:31;;;;;;;77.80;34.33;;;;;;;5.33;100.00;101329.16;5110290;27;20035;-73
2021/03/10 07:43:58;;;;;;;83.25;34.47;;;;;;;5.25;100.00;101329.41;5091535;28;20089;-72
2021/03/10 07:46:24;;;;;;;87.07;36.90;;;;;;;5.20;100.00;101328.69;5103981;27;20037;-72
2021/03/10 07:48:50;;;;;;;98.10;38.05;;;;;;;5.29;100.00;101331.06;5111889;27;20435;-73
2021/03/10 07:51:33;;;;;;;86.97;36.53;;;;;;;5.31;100.00;101329.22;5106573;27;20250;-73
2021/03/10 07:54:00;;;;;;;87.20;37.17;;;;;;;5.40;100.00;101334.25;5107282;28;20038;-73
2021/03/10 07:56:29;;;;;;;102.65;38.05;;;;;;;5.47;100.00;101341.09;5108261;27;20036;-74
2021/03/10 07:59:10;;;;;;;97.65;39.85;;;;;;;5.45;100.00;101332.28;5111898;27;20035;-71
2021/03/10 08:01:36;;;;;;;91.82;37.25;;;;;;;5.48;100.00;101337.53;5113152;27;20521;-72
2021/03/10 08:04:09;;;;;;;93.38;39.80;;;;;;;5.47;100.00;101335.78;5097014;28;20058;-71
2021/03/10 08:06:55;;;;;;;101.35;39.97;;;;;;;5.53;100.00;101330.25;5111738;27;20138;-72
2021/03/10 08:09:23;;;;;;;97.63;40.05;;;;;;;5.70;100.00;101333.19;5105263;27;20042;-71
2021/03/10 08:12:02;;;;;;;96.35;39.25;;;;;;;5.69;100.00;101336.78;5107000;28;20019;-71
2021/03/10 08:14:34;;;;;;;98.60;40.58;;;;;;;5.76;100.00;101328.56;5106047;27;20497;-71
2021/03/10 08:17:01;;;;;;;97.72;39.35;;;;;;;5.83;100.00;101322.13;5108993;28;20027;-71
2021/03/10 08:19:28;;;;;;;97.07;41.08;;;;;;;6.00;100.00;101322.41;5106534;27;20031;-71
2021/03/10 08:21:55;;;;;;;85.72;38.15;;;;;;;6.14;100.00;101317.47;5110836;27;20028;-71
2021/03/10 08:24:22;;;;;;;97.30;39.83;;;;;;;6.28;100.00;101308.97;5111910;27;20088;-71
2021/03/10 08:26:59;;;;;;;93.35;40.55;;;;;;;6.34;100.00;101309.63;5101447;27;20127;-71
2021/03/10 08:29:26;;;;;;;98.30;41.95;;;;;;;6.42;100.00;101309.31;5103404;27;20498;-71
2021/03/10 08:31:54;;;;;;;99.05;39.83;;;;;;;6.49;100.00;101302.81;5105654;27;20134;-71
2021/03/10 08:34:38;;;;;;;94.05;41.60;;;;;;;6.52;100.00;101301.84;5104648;28;20116;-72
2021/03/10 08:37:08;;;;;;;95.05;39.60;;;;;;;6.50;100.00;101294.75;5104155;28;20023;-71
2021/03/10 08:39:39;;;;;;;90.63;39.20;;;;;;;6.64;100.00;101299.56;5100457;28;20425;-72
2021/03/10 08:42:05;;;;;;;90.47;41.28;;;;;;;6.70;100.00;101302.00;5086428;27;20035;-71
2021/03/10 08:44:42;;;;;;;85.85;40.25;;;;;;;6.76;100.00;101292.88;5105938;27;20469;-71
2021/03/10 08:47:16;;;;;;;100.82;41.65;;;;;;;6.79;100.00;101296.28;5112654;27;20039;-72
2021/03/10 08:49:51;;;;;;;97.60;39.35;;;;;;;6.83;100.00;101297.94;5107252;27;20031;-71
2021/03/10 08:52:20;;;;;;;86.97;38.83;;;;;;;6.94;100.00;101299.28;5116465;27;20053;-72
2021/03/10 08:54:49;;;;;;;86.93;39.30;;;;;;;6.96;100.00;101297.44;5113191;27;20035;-72
2021/03/10 08:57:19;;;;;;;88.18;39.38;;;;;;;7.00;100.00;101302.56;5099708;27;20089;-71
2021/03/10 08:59:45;;;;;;;94.60;40.72;;;;;;;6.97;100.00;101302.72;5098816;27;20036;-72
2021/03/10 09:02:12;;;;;;;89.70;38.20;;;;;;;7.13;100.00;101298.47;5108940;27;20124;-72
2021/03/10 09:04:45;;;;;;;85.65;37.63;;;;;;;7.23;100.00;101299.84;5107365;27;20023;-71
2021/03/10 09:07:10;;;;;;;81.65;35.40;;;;;;;7.32;100.00;101302.13;5098242;27;20118;-72
2021/03/10 09:09:36;;;;;;;79.03;35.50;;;;;;;7.34;100.00;101301.22;5077831;27;20111;-72
2021/03/10 09:12:06;;;;;;;77.38;36.50;;;;;;;7.42;100.00;101304.41;5114395;27;20489;-72
2021/03/10 09:14:38;;;;;;;77.70;35.58;;;;;;;7.51;100.00;101304.03;5107614;27;20035;-72
2021/03/10 09:17:08;;;;;;;81.22;35.35;;;;;;;7.57;100.00;101306.44;5088676;28;20197;-71
2021/03/10 09:19:44;;;;;;;76.93;34.70;;;;;;;7.57;100.00;101303.78;5103728;27;20110;-71
2021/03/10 09:22:14;;;;;;;72.28;32.65;;;;;;;7.60;100.00;101293.81;5091268;27;20113;-71
2021/03/10 09:24:50;;;;;;;72.80;33.30;;;;;;;7.66;100.00;101287.34;5092297;27;20027;-72
2021/03/10 09:27:24;;;;;;;73.70;35.28;;;;;;;7.73;100.00;101288.81;5095743;27;20085;-72
2021/03/10 09:29:52;;;;;;;73.60;33.38;;;;;;;7.79;100.00;101288.53;5117407;27;20169;-71
2021/03/10 09:32:18;;;;;;;75.75;34.38;;;;;;;7.89;100.00;101287.22;5086733;27;20146;-72
2021/03/10 09:34:49;;;;;;;71.50;31.33;;;;;;;7.89;100.00;101276.53;5111644;27;20023;-71
2021/03/10 09:37:14;;;;;;;70.95;31.75;;;;;;;7.87;100.00;101286.41;5102153;27;20047;-71
2021/03/10 09:39:49;;;;;;;63.83;31.90;;;;;;;8.05;100.00;101274.03;5106708;27;20452;-72
2021/03/10 09:42:26;;;;;;;68.40;30.13;;;;;;;8.08;99.40;101277.41;5091432;27;20496;-71
2021/03/10 09:44:58;;;;;;;62.03;29.58;;;;;;;8.31;96.92;101275.56;5111304;27;20482;-72
2021/03/10 09:47:35;;;;;;;60.33;28.13;;;;;;;8.38;95.67;101271.66;5108001;27;20123;-72
2021/03/10 09:50:05;;;;;;;67.00;30.33;;;;;;;8.41;94.68;101274.19;5096556;28;20110;-71
2021/03/10 09:52:40;;;;;;;68.32;28.23;;;;;;;8.47;96.45;101271.22;5087059;28;20039;-71
2021/03/10 09:55:18;;;;;;;55.25;28.00;;;;;;;8.56;95.62;101264.56;5088688;28;20031;-72
2021/03/10 09:57:47;;;;;;;62.58;29.17;;;;;;;8.65;94.95;101256.97;5107058;27;20032;-71
2021/03/10 10:00:21;;;;;;;63.65;29.52;;;;;;;8.69;94.49;101253.22;5092365;28;20034;-72
2021/03/10 10:02:51;;;;;;;59.55;26.85;;;;;;;8.93;92.04;101252.03;5081786;28;20118;-72
2021/03/10 10:05:34;;;;;;;59.80;27.83;;;;;;;9.01;92.06;101256.16;5094903;27;20043;-71
2021/03/10 10:08:00;;;;;;;54.42;26.85;;;;;;;9.15;90.16;101261.66;5103451;28;20055;-71
2021/03/10 10:10:31;;;;;;;50.03;22.85;;;;;;;9.25;86.65;101252.25;5098312;28;20044;-72
2021/03/10 10:12:58;;;;;;;48.88;23.63;;;;;;;9.20;86.13;101260.50;5099073;28;20027;-71
2021/03/10 10:15:34;;;;;;;46.92;22.92;;;;;;;9.34;85.37;101262.47;5116778;27;20721;-72
2021/03/10 10:18:04;;;;;;;46.97;22.45;;;;;;;9.36;85.93;101255.25;5102274;27;20043;-72
2021/03/10 10:20:34;;;;;;;45.30;21.80;;;;;;;9.44;83.72;101263.78;5084675;28;20024;-72
2021/03/10 10:23:04;;;;;;;39.28;20.48;;;;;;;9.41;82.05;101268.41;5100931;28;20493;-71
2021/03/10 10:25:34;;;;;;;48.72;23.42;;;;;;;9.54;83.86;101262.34;5102830;27;20019;-72
2021/03/10 10:28:04;;;;;;;46.20;22.50;;;;;;;9.61;84.24;101257.53;5098195;27;20032;-72
2021/03/10 10:30:30;;;;;;;36.30;17.45;;;;;;;9.65;79.90;101249.25;5101094;27;20096;-72
2021/03/10 10:32:56;;;;;;;40.35;19.20;;;;;;;9.62;79.08;101252.09;5102986;27;20052;-72
2021/03/10 10:35:23;;;;;;;36.65;16.60;;;;;;;9.68;77.12;101251.78;5102889;28;20540;-71
2021/03/10 10:37:52;;;;;;;40.90;17.33;;;;;;;9.74;76.20;101256.81;5104488;27;20634;-72
2021/03/10 10:40:20;;;;;;;32.00;16.15;;;;;;;9.86;78.15;101255.31;5104955;28;20336;-72
2021/03/10 10:42:47;;;;;;;33.80;15.23;;;;;;;9.96;75.16;101250.31;5113787;27;20440;-71
2021/03/10 10:45:14;;;;;;;31.92;15.40;;;;;;;9.99;74.78;101250.16;5108940;27;20072;-72
2021/03/10 10:47:41;;;;;;;31.20;15.48;;;;;;;10.10;75.90;101247.75;5105316;28;20071;-72
2021/03/10 10:50:14;;;;;;;29.00;14.53;;;;;;;10.20;73.97;101242.78;5107837;28;20027;-72
2021/03/10 10:52:44;;;;;;;28.45;13.32;;;;;;;10.23;69.83;101243.50;5094842;27;20395;-72
2021/03/10 10:55:13;;;;;;;28.55;13.98;;;;;;;10.34;72.34;101245.59;5082332;28;20019;-72
2021/03/10 10:57:41;;;;;;;29.08;15.38;;;;;;;10.28;72.31;101240.56;5089830;28;20028;-72
2021/03/10 11:00:10;;;;;;;30.02;13.88;;;;;;;10.26;72.05;101243.31;5094882;28;20027;-72
2021/03/10 11:02:36;;;;;;;32.65;15.00;;;;;;;10.36;72.69;101233.84;5108842;28;20043;-72
2021/03/10 11:05:10;;;;;;;28.42;14.65;;;;;;;10.45;71.06;101238.69;5110546;28;20031;-72
2021/03/10 11:07:37;;;;;;;29.85;14.48;;;;;;;10.44;71.42;101236.94;5118321;28;20483;-72
2021/03/10 11:10:06;;;;;;;30.45;14.27;;;;;;;10.54;72.45;101230.13;5106231;28;20145;-71
2021/03/10 11:12:35;;;;;;;30.35;14.55;;;;;;;10.43;72.79;101229.84;5121663;27;20031;-72
2021/03/10 11:15:04;;;;;;;30.77;13.68;;;;;;;10.49;73.02;101229.50;5110964;28;20027;-72
2021/03/10 11:17:46;;;;;;;26.02;13.57;;;;;;;10.60;71.25;101228.03;5105539;28;20105;-72
2021/03/10 11:20:14;;;;;;;25.27;11.63;;;;;;;10.49;69.96;101223.28;5108918;28;20385;-72